Latest Weather Observations for Ocean Reef

IDW60801

Issued at 8:54 am WST Thursday 1 October 2020 (issued every 10 minutes, with the page automatically refreshed every 10 minutes)

About weather observations | Map of weather stations | Latest weather observations for WA | Other Formats
Station Details ID: 009214 Name: OCEAN REEF Lat: -31.76 Lon: 115.73 Height: 10.0 m
Data from the previous 72 hours. | See also: Recent months at Ocean Reef
Date/Time
WST
Temp
°C
App
Temp
°C
Dew
Point
°C
Rel
Hum
%
Delta-T
°C
Wind Press
QNH
hPa
Press
MSL
hPa
Rain since
9am
mm
Dir  Spd
km/h
Gust
km/h
Spd
kts
Gust
kts
01/08:30am - - - - - W 28 30 15 16 - - -
01/08:00am - - - - - W 28 30 15 16 - - -
01/07:30am - - - - - W 32 35 17 19 - - -
01/07:00am - - - - - W 22 26 12 14 - - -
01/06:30am - - - - - WSW 24 28 13 15 - - -
01/06:00am - - - - - W 24 28 13 15 - - -
01/05:30am - - - - - W 26 30 14 16 - - -
01/05:00am - - - - - W 22 30 12 16 - - -
01/04:30am - - - - - W 28 33 15 18 - - -
01/04:00am - - - - - WSW 24 30 13 16 - - -
01/03:30am - - - - - W 30 35 16 19 - - -
01/03:00am - - - - - W 26 30 14 16 - - -
01/02:30am - - - - - WSW 28 33 15 18 - - -
01/02:00am - - - - - WSW 24 30 13 16 - - -
01/01:30am - - - - - WSW 28 32 15 17 - - -
01/01:00am - - - - - W 28 33 15 18 - - -
01/12:30am - - - - - W 26 28 14 15 - - -
01/12:00am - - - - - W 24 30 13 16 - - -
 
Date/Time
WST
Temp
°C
App
Temp
°C
Dew
Point
°C
Rel
Hum
%
Delta-T
°C
Wind Press
QNH
hPa
Press
MSL
hPa
Rain since
9am
mm
Dir  Spd
km/h
Gust
km/h
Spd
kts
Gust
kts
30/11:30pm - - - - - WSW 28 30 15 16 - - -
30/11:00pm - - - - - W 22 26 12 14 - - -
30/10:30pm - - - - - W 19 26 10 14 - - -
30/10:00pm - - - - - W 20 26 11 14 - - -
30/09:30pm - - - - - W 24 26 13 14 - - -
30/09:00pm - - - - - W 19 22 10 12 - - -
30/08:30pm - - - - - W 22 28 12 15 - - -
30/08:00pm - - - - - W 24 28 13 15 - - -
30/07:30pm - - - - - W 24 28 13 15 - - -
30/07:00pm - - - - - W 22 28 12 15 - - -
30/06:30pm - - - - - W 24 28 13 15 - - -
30/06:00pm - - - - - W 17 19 9 10 - - -
30/05:30pm - - - - - W 19 20 10 11 - - -
30/05:00pm - - - - - W 19 20 10 11 - - -
30/04:30pm - - - - - WNW 17 19 9 10 - - -
30/04:00pm - - - - - W 19 20 10 11 - - -
30/03:30pm - - - - - WNW 20 24 11 13 - - -
30/03:00pm - - - - - WNW 20 24 11 13 - - -
30/02:30pm - - - - - W 19 24 10 13 - - -
30/02:00pm - - - - - WNW 20 26 11 14 - - -
30/01:30pm - - - - - NW 15 17 8 9 - - -
30/01:00pm - - - - - WNW 11 13 6 7 - - -
30/12:30pm - - - - - NW 15 17 8 9 - - -
30/12:00pm - - - - - WNW 19 24 10 13 - - -
30/11:30am - - - - - NW 13 15 7 8 - - -
30/11:00am - - - - - NW 11 13 6 7 - - -
30/10:30am - - - - - NW 11 15 6 8 - - -
30/10:00am - - - - - NNW 17 20 9 11 - - -
30/09:30am - - - - - WNW 17 24 9 13 - - -
30/09:00am - - - - - WNW 7 9 4 5 - - -
30/08:30am - - - - - WSW 6 7 3 4 - - -
30/08:00am - - - - - SSW 7 7 4 4 - - -
30/07:30am - - - - - SW 9 11 5 6 - - -
30/07:00am - - - - - SW 11 13 6 7 - - -
30/06:30am - - - - - WSW 11 11 6 6 - - -
30/06:00am - - - - - SW 13 17 7 9 - - -
30/05:30am - - - - - SW 15 19 8 10 - - -
30/05:00am - - - - - WSW 19 22 10 12 - - -
30/04:30am - - - - - WSW 13 15 7 8 - - -
30/04:00am - - - - - SSW 11 13 6 7 - - -
30/03:30am - - - - - SW 15 19 8 10 - - -
30/03:00am - - - - - SW 20 26 11 14 - - -
30/02:30am - - - - - SW 24 30 13 16 - - -
30/02:00am - - - - - SSW 20 24 11 13 - - -
30/01:30am - - - - - SW 20 24 11 13 - - -
30/01:00am - - - - - SSW 22 26 12 14 - - -
30/12:30am - - - - - SW 17 19 9 10 - - -
30/12:00am - - - - - SSW 15 24 8 13 - - -
 
Date/Time
WST
Temp
°C
App
Temp
°C
Dew
Point
°C
Rel
Hum
%
Delta-T
°C
Wind Press
QNH
hPa
Press
MSL
hPa
Rain since
9am
mm
Dir  Spd
km/h
Gust
km/h
Spd
kts
Gust
kts
29/11:30pm - - - - - W 15 22 8 12 - - -
29/11:00pm - - - - - SW 17 24 9 13 - - -
29/10:30pm - - - - - SW 20 24 11 13 - - -
29/10:00pm - - - - - SW 22 30 12 16 - - -
29/09:30pm - - - - - SW 32 37 17 20 - - -
29/09:00pm - - - - - W 28 35 15 19 - - -
29/08:30pm - - - - - W 22 26 12 14 - - -
29/08:00pm - - - - - W 22 30 12 16 - - -
29/07:30pm - - - - - WSW 24 30 13 16 - - -
29/07:00pm - - - - - W 28 32 15 17 - - -
29/06:30pm - - - - - WNW 28 33 15 18 - - -
29/06:00pm - - - - - W 28 32 15 17 - - -
29/05:30pm - - - - - WNW 26 32 14 17 - - -
29/05:00pm - - - - - W 28 33 15 18 - - -
29/04:30pm - - - - - W 30 33 16 18 - - -
29/04:00pm - - - - - W 30 33 16 18 - - -
29/03:30pm - - - - - W 32 35 17 19 - - -
29/03:00pm - - - - - WNW 32 39 17 21 - - -
29/02:30pm - - - - - WNW 30 37 16 20 - - -
29/02:00pm - - - - - WNW 32 37 17 20 - - -
29/01:30pm - - - - - WNW 30 33 16 18 - - -
29/01:00pm - - - - - WNW 26 32 14 17 - - -
29/12:30pm - - - - - NW 26 35 14 19 - - -
29/12:00pm - - - - - WNW 32 37 17 20 - - -
29/11:30am - - - - - NW 24 28 13 15 - - -
29/11:00am - - - - - WNW 20 28 11 15 - - -
29/10:30am - - - - - WNW 26 30 14 16 - - -
29/10:00am - - - - - NW 28 32 15 17 - - -
29/09:30am - - - - - W 22 26 12 14 - - -
29/09:00am - - - - - WNW 26 32 14 17 - - -
29/08:30am - - - - - W 26 30 14 16 - - -
29/08:00am - - - - - W 26 30 14 16 - - -
29/07:30am - - - - - NNE 11 15 6 8 - - -
29/07:00am - - - - - NNW 9 13 5 7 - - -
29/06:30am - - - - - NNE 13 19 7 10 - - -
29/06:00am - - - - - NE 9 15 5 8 - - -
29/05:30am - - - - - NNE 9 13 5 7 - - -
29/05:00am - - - - - NE 11 15 6 8 - - -
29/04:30am - - - - - N 9 19 5 10 - - -
29/04:00am - - - - - WNW 17 20 9 11 - - -
29/03:30am - - - - - W 17 22 9 12 - - -
29/03:00am - - - - - W 15 17 8 9 - - -
29/02:30am - - - - - WSW 15 19 8 10 - - -
29/02:00am - - - - - SW 17 28 9 15 - - -
29/01:30am - - - - - WSW 17 20 9 11 - - -
29/01:00am - - - - - WSW 17 20 9 11 - - -
29/12:30am - - - - - WSW 13 17 7 9 - - -
29/12:00am - - - - - SW 15 19 8 10 - - -
 
Date/Time
WST
Temp
°C
App
Temp
°C
Dew
Point
°C
Rel
Hum
%
Delta-T
°C
Wind Press
QNH
hPa
Press
MSL
hPa
Rain since
9am
mm
Dir  Spd
km/h
Gust
km/h
Spd
kts
Gust
kts
28/11:30pm - - - - - SW 15 22 8 12 - - -
28/11:00pm - - - - - SW 15 17 8 9 - - -
28/10:30pm - - - - - SW 15 19 8 10 - - -
28/10:00pm - - - - - SW 17 20 9 11 - - -
28/09:30pm - - - - - SW 17 20 9 11 - - -
28/09:00pm - - - - - SW 17 22 9 12 - - -
28/08:30pm - - - - - WSW 17 20 9 11 - - -
28/08:00pm - - - - - SW 19 20 10 11 - - -
28/07:30pm - - - - - SSW 19 26 10 14 - - -
28/07:00pm - - - - - SW 24 33 13 18 - - -
28/06:30pm - - - - - SW 24 30 13 16 - - -
28/06:00pm - - - - - SW 26 32 14 17 - - -
28/05:30pm - - - - - SW 24 30 13 16 - - -
28/05:00pm - - - - - SW 24 30 13 16 - - -
28/04:30pm - - - - - SW 22 30 12 16 - - -
28/04:00pm - - - - - SW 28 33 15 18 - - -
28/03:30pm - - - - - SW 26 32 14 17 - - -
28/03:00pm - - - - - SW 24 30 13 16 - - -
28/02:30pm - - - - - SW 20 26 11 14 - - -
28/02:00pm - - - - - SW 19 22 10 12 - - -
28/01:30pm - - - - - SSW 17 20 9 11 - - -
28/01:00pm - - - - - SSW 24 30 13 16 - - -
28/12:30pm - - - - - WSW 20 28 11 15 - - -
28/12:00pm - - - - - W 30 35 16 19 - - -
28/11:30am - - - - - W 24 28 13 15 - - -
28/11:00am - - - - - NW 19 26 10 14 - - -
28/10:30am - - - - - NW 9 13 5 7 - - -
28/10:00am - - - - - SSW 7 9 4 5 - - -
28/09:30am - - - - - SE 9 13 5 7 - - -
28/09:00am - - - - - N 15 24 8 13 - - -

Other formats

Comma delimited format used in spreadsheet applications
http://www.bom.gov.au/fwo/IDW60801/IDW60801.94607.axf

JavaScript Object Notation format (JSON) in row-major order
http://www.bom.gov.au/fwo/IDW60801/IDW60801.94607.json

Data quality

Most of these data are generated automatically and are frequently updated. Quality checks on data are not normally performed. It is possible for incorrect values to appear. Refer to information at About Latest Weather Observations and please check the disclaimer before using these data.